createdAt,value
2022-11-01T17:02:26.916Z,102.75
2022-11-01T17:03:59.241Z,98.00
2022-11-01T17:05:30.943Z,102.25
2022-11-01T17:07:02.635Z,101.75
2022-11-01T17:08:34.412Z,101.75
2022-11-01T17:10:22.286Z,93.75
2022-11-01T17:11:54.438Z,106.00
2022-11-01T17:13:26.229Z,114.00
2022-11-01T17:14:58.058Z,111.00
2022-11-01T17:16:29.873Z,96.25
2022-11-01T17:18:05.433Z,118.75
2022-11-01T17:19:38.853Z,106.75
2022-11-01T17:21:11.844Z,117.00
2022-11-01T17:22:43.790Z,95.50
2022-11-01T17:24:16.207Z,98.00
2022-11-01T17:25:48.316Z,110.75
2022-11-01T17:27:20.248Z,105.25
2022-11-01T17:28:52.498Z,113.00
2022-11-01T17:30:24.424Z,99.50
2022-11-01T17:31:56.391Z,103.00
2022-11-01T17:33:28.277Z,120.25
2022-11-01T17:35:00.036Z,110.60
2022-11-01T17:36:31.857Z,117.25
2022-11-01T17:38:04.806Z,120.60
2022-11-01T17:39:36.958Z,130.00
2022-11-01T17:41:09.631Z,121.00
2022-11-01T17:42:41.401Z,128.20
2022-11-01T17:44:13.326Z,120.60
2022-11-01T17:45:45.670Z,121.80
2022-11-01T17:47:17.620Z,130.40
2022-11-01T17:48:50.818Z,128.80
2022-11-01T17:50:22.748Z,121.40
2022-11-01T17:51:56.976Z,117.00
2022-11-01T17:53:28.802Z,121.40
2022-11-01T17:55:00.577Z,107.20
2022-11-01T17:56:32.388Z,117.40
2022-11-01T17:58:04.607Z,114.40
2022-11-01T17:59:36.619Z,124.20
2022-11-01T18:01:08.489Z,116.00
2022-11-01T18:02:40.562Z,119.80
2022-11-01T18:04:12.421Z,131.80
2022-11-01T18:05:44.278Z,133.80
2022-11-01T18:07:16.961Z,134.80
2022-11-01T18:08:51.372Z,127.00
2022-11-01T18:10:51.830Z,120.00
2022-11-01T18:12:33.253Z,135.50
2022-11-01T18:14:15.098Z,139.25
2022-11-01T18:16:18.426Z,147.75
2022-11-01T18:18:09.621Z,139.50
2022-11-01T18:19:51.101Z,133.25
2022-11-01T18:21:32.792Z,128.25
2022-11-01T18:23:06.785Z,137.50
2022-11-01T18:24:43.765Z,128.50
2022-11-01T18:26:19.385Z,138.50
2022-11-01T18:27:51.375Z,131.25
2022-11-01T18:29:24.134Z,116.60
2022-11-01T18:31:03.190Z,134.25
2022-11-01T18:32:38.578Z,130.80
2022-11-01T18:34:42.004Z,128.00
2022-11-01T18:36:16.071Z,133.20
2022-11-01T18:38:13.393Z,120.40
2022-11-01T18:40:04.105Z,114.60
2022-11-01T18:41:35.823Z,121.00
2022-11-01T18:43:10.441Z,133.20
2022-11-01T18:44:42.103Z,104.80
2022-11-01T18:46:25.030Z,116.00
2022-11-01T18:48:01.485Z,118.25
2022-11-01T18:49:33.495Z,114.50
2022-11-01T18:51:06.047Z,107.80
2022-11-01T18:52:37.785Z,105.75
2022-11-01T18:54:09.392Z,98.75
2022-11-01T18:55:41.780Z,96.00
2022-11-01T18:57:17.437Z,97.00
2022-11-01T18:58:50.474Z,102.25
2022-11-01T19:00:22.228Z,100.75
2022-11-01T19:01:59.299Z,93.75
2022-11-01T19:03:31.141Z,87.75
2022-11-01T19:05:14.833Z,87.25
2022-11-01T19:06:46.608Z,84.75
2022-11-01T19:08:23.630Z,90.25
2022-11-01T19:09:56.828Z,81.75
2022-11-01T19:11:29.880Z,81.50
2022-11-01T19:13:01.570Z,89.25
2022-11-01T19:14:33.536Z,85.25
2022-11-01T19:16:05.674Z,84.75
2022-11-01T19:17:38.994Z,87.00
2022-11-01T19:19:14.403Z,76.25
2022-11-01T19:20:53.797Z,74.25
2022-11-01T19:22:40.232Z,70.25
2022-11-01T19:24:35.103Z,63.60
2022-11-01T19:26:27.783Z,62.20
2022-11-01T19:28:02.641Z,60.60
2022-11-01T19:29:34.489Z,60.60
2022-11-01T19:31:08.958Z,59.60
2022-11-01T19:32:40.653Z,62.60
2022-11-01T19:34:16.896Z,61.40
2022-11-01T19:35:50.859Z,57.20
2022-11-01T19:37:28.355Z,60.80
2022-11-01T19:39:02.215Z,50.00
2022-11-01T19:40:35.949Z,54.20
2022-11-01T19:42:29.028Z,48.20
2022-11-01T19:44:04.999Z,51.60
2022-11-01T19:45:37.985Z,45.80
2022-11-01T19:47:37.017Z,47.80
2022-11-01T19:49:38.320Z,37.20
2022-11-01T19:51:22.781Z,50.20
2022-11-01T19:52:57.965Z,29.20
2022-11-01T19:54:29.905Z,40.40
2022-11-01T19:56:02.255Z,40.00
2022-11-01T19:57:34.636Z,49.40
2022-11-01T19:59:11.449Z,56.80
2022-11-01T20:00:43.141Z,56.80
2022-11-01T20:02:17.000Z,59.40
2022-11-01T20:03:51.307Z,63.20
2022-11-01T20:05:25.306Z,63.20
2022-11-01T20:07:09.679Z,61.20
2022-11-01T20:08:41.468Z,62.60
2022-11-01T20:10:15.077Z,62.40
2022-11-01T20:11:46.863Z,62.40
2022-11-01T20:13:18.640Z,66.40
2022-11-01T20:14:50.361Z,68.00
2022-11-01T20:16:22.166Z,74.50
2022-11-01T20:17:53.932Z,76.00
2022-11-01T20:19:25.795Z,83.50
2022-11-01T20:20:58.716Z,80.50
2022-11-01T20:22:30.438Z,80.00
2022-11-01T20:24:04.000Z,83.00
2022-11-01T20:25:35.644Z,82.75
2022-11-01T20:27:07.585Z,82.00
2022-11-01T20:28:39.290Z,83.75
2022-11-01T20:30:11.150Z,82.50
2022-11-01T20:31:43.167Z,76.75
2022-11-01T20:33:16.354Z,91.75
2022-11-01T20:34:48.416Z,87.75
2022-11-01T20:36:20.168Z,89.00
2022-11-01T20:37:52.420Z,84.75
2022-11-01T20:39:25.350Z,94.50
2022-11-01T20:40:57.057Z,87.75
2022-11-01T20:42:28.842Z,92.00
2022-11-01T20:44:00.999Z,90.00
2022-11-01T20:45:34.883Z,84.25
2022-11-01T20:47:06.550Z,78.25
2022-11-01T20:48:38.324Z,89.75
2022-11-01T20:50:10.662Z,82.50
2022-11-01T20:51:43.357Z,80.75
2022-11-01T20:53:15.359Z,81.75
2022-11-01T20:54:47.049Z,82.00
2022-11-01T20:56:19.652Z,85.75
2022-11-01T20:57:53.739Z,97.00
2022-11-01T20:59:25.524Z,102.75
2022-11-01T21:00:57.795Z,103.40
2022-11-01T21:02:29.844Z,108.60
2022-11-01T21:04:01.612Z,107.00
2022-11-01T21:05:36.655Z,104.75
2022-11-01T21:07:14.712Z,114.20
2022-11-01T21:08:47.227Z,105.25
2022-11-01T21:10:32.016Z,108.20
2022-11-01T21:12:05.627Z,108.00
2022-11-01T21:13:39.206Z,108.00
2022-11-01T21:15:25.730Z,111.60
2022-11-01T21:16:58.988Z,109.75
2022-11-01T21:18:32.514Z,106.20
2022-11-01T21:20:05.084Z,104.60
2022-11-01T21:21:43.884Z,106.25
2022-11-01T21:23:35.633Z,109.50
2022-11-01T21:25:08.608Z,102.00
2022-11-01T21:26:42.020Z,94.25
2022-11-01T21:28:33.366Z,107.00
2022-11-01T21:30:15.358Z,110.50
2022-11-01T21:31:47.285Z,110.50
2022-11-01T21:33:37.920Z,98.50
2022-11-01T21:35:21.273Z,95.50
2022-11-01T21:36:53.070Z,106.00
2022-11-01T21:38:34.190Z,110.50
2022-11-01T21:40:14.509Z,96.75
2022-11-01T21:41:48.274Z,95.25
2022-11-01T21:43:24.533Z,89.75
2022-11-01T21:44:56.404Z,91.50
2022-11-01T21:46:28.233Z,97.50
2022-11-01T21:48:01.600Z,85.75
2022-11-01T21:49:33.614Z,105.75
2022-11-01T21:51:05.429Z,106.75
2022-11-01T21:52:37.161Z,119.80
2022-11-01T21:54:08.815Z,113.00
2022-11-01T21:55:40.705Z,114.40
2022-11-01T21:57:12.534Z,118.00
2022-11-01T21:58:44.251Z,123.80
2022-11-01T22:00:16.428Z,119.80
2022-11-01T22:01:48.355Z,108.40
2022-11-01T22:03:21.012Z,128.75
2022-11-01T22:04:52.933Z,117.40
2022-11-01T22:06:24.660Z,124.00
2022-11-01T22:07:56.373Z,130.25
2022-11-01T22:09:28.255Z,121.00
2022-11-01T22:11:00.006Z,121.00
2022-11-01T22:12:32.162Z,117.00
2022-11-01T22:14:04.082Z,110.00
2022-11-01T22:15:35.676Z,115.00
2022-11-01T22:17:07.501Z,176.75
2022-11-01T22:18:39.235Z,133.50
2022-11-01T22:20:11.220Z,134.00
2022-11-01T22:21:43.093Z,124.00
2022-11-01T22:23:14.802Z,131.25
2022-11-01T22:24:47.062Z,117.40
2022-11-01T22:26:18.894Z,121.60
2022-11-01T22:27:50.736Z,112.80
2022-11-01T22:29:22.512Z,122.00
2022-11-01T22:30:54.238Z,127.00
2022-11-01T22:32:25.970Z,119.75
2022-11-01T22:33:57.818Z,125.75
2022-11-01T22:35:29.590Z,131.25
2022-11-01T22:37:01.343Z,135.25
2022-11-01T22:38:38.618Z,138.50
2022-11-01T22:40:13.736Z,150.00
2022-11-01T22:41:45.448Z,153.75
2022-11-01T22:43:18.069Z,141.75
2022-11-01T22:44:49.885Z,144.00
2022-11-01T22:46:30.121Z,136.25
2022-11-01T22:48:01.908Z,144.50
2022-11-01T22:49:40.991Z,154.00
2022-11-01T22:51:24.072Z,154.75
2022-11-01T22:52:55.835Z,165.75
2022-11-01T22:55:12.667Z,147.25
2022-11-01T22:56:44.689Z,139.50
2022-11-01T22:58:35.807Z,133.25
2022-11-01T23:00:39.217Z,125.20
2022-11-01T23:02:27.841Z,130.25
2022-11-01T23:03:59.819Z,137.25
2022-11-01T23:05:31.552Z,128.25
2022-11-01T23:07:05.466Z,153.25
2022-11-01T23:08:38.711Z,145.75
2022-11-01T23:10:23.824Z,146.25
2022-11-01T23:12:14.216Z,151.50
2022-11-01T23:14:04.430Z,147.50
2022-11-01T23:15:36.784Z,153.00
2022-11-01T23:17:27.696Z,144.75
2022-11-01T23:19:03.622Z,148.50
2022-11-01T23:20:35.340Z,159.25
2022-11-01T23:22:13.198Z,145.00
2022-11-01T23:23:45.529Z,146.50
2022-11-01T23:25:17.239Z,164.00
2022-11-01T23:26:48.885Z,150.00
2022-11-01T23:28:20.598Z,137.50
2022-11-01T23:29:52.969Z,146.75
2022-11-01T23:31:26.720Z,142.00
2022-11-01T23:32:58.860Z,154.50
2022-11-01T23:34:30.609Z,150.00
